createdAt,value
2017-03-26T00:00:19.474Z,0
2017-03-26T00:01:20.723Z,0
2017-03-26T00:02:21.969Z,0
2017-03-26T00:03:23.249Z,0
2017-03-26T00:04:24.543Z,0
2017-03-26T00:05:25.756Z,0
2017-03-26T00:06:27.018Z,0
2017-03-26T00:07:28.261Z,0
2017-03-26T00:08:29.490Z,0
2017-03-26T00:09:30.755Z,0
2017-03-26T00:10:32.000Z,0
2017-03-26T00:11:33.240Z,0
2017-03-26T00:12:34.537Z,0
2017-03-26T00:13:35.846Z,0
2017-03-26T00:14:37.144Z,0
2017-03-26T00:15:38.380Z,0
2017-03-26T00:16:39.644Z,0
2017-03-26T00:17:40.855Z,0
2017-03-26T00:18:42.139Z,0
2017-03-26T00:19:43.379Z,0
2017-03-26T00:20:44.641Z,0
2017-03-26T00:21:45.958Z,0
2017-03-26T00:22:47.176Z,0
2017-03-26T00:23:48.402Z,0
2017-03-26T00:24:49.642Z,0
2017-03-26T00:25:50.877Z,0
2017-03-26T00:26:52.116Z,0
2017-03-26T00:27:53.346Z,0
2017-03-26T00:28:54.584Z,0
2017-03-26T00:29:55.823Z,0
2017-03-26T00:30:57.063Z,0
2017-03-26T00:31:58.332Z,0
2017-03-26T00:32:59.570Z,0
2017-03-26T00:34:00.818Z,0
2017-03-26T00:35:02.067Z,0
2017-03-26T00:36:03.361Z,0
2017-03-26T00:37:04.645Z,0
2017-03-26T00:38:05.860Z,0
2017-03-26T00:39:07.206Z,0
2017-03-26T00:40:08.454Z,0
2017-03-26T00:41:09.696Z,0
2017-03-26T00:42:10.924Z,0
2017-03-26T00:43:12.181Z,0
2017-03-26T00:44:13.424Z,0
2017-03-26T00:45:14.667Z,0
2017-03-26T00:46:15.893Z,0
2017-03-26T00:47:17.134Z,0
2017-03-26T00:48:18.378Z,0
2017-03-26T00:49:19.708Z,0
2017-03-26T00:50:20.919Z,0
2017-03-26T00:51:22.234Z,0
2017-03-26T00:52:23.526Z,0
2017-03-26T00:53:24.835Z,0
2017-03-26T00:54:26.056Z,0
2017-03-26T00:55:27.287Z,0
2017-03-26T00:56:28.520Z,0
2017-03-26T00:57:29.801Z,0
2017-03-26T00:58:31.046Z,0
2017-03-26T00:59:32.402Z,0
2017-03-26T01:00:33.615Z,0
2017-03-26T01:01:34.848Z,0
2017-03-26T01:02:36.085Z,0
2017-03-26T01:03:37.327Z,0
2017-03-26T01:04:38.566Z,0
2017-03-26T01:05:39.904Z,0
2017-03-26T01:06:41.168Z,0
2017-03-26T01:07:42.402Z,0
2017-03-26T01:08:43.646Z,0
2017-03-26T01:09:44.916Z,0
2017-03-26T01:10:46.120Z,0
2017-03-26T01:11:47.430Z,0
2017-03-26T01:12:48.640Z,0
2017-03-26T01:13:50.003Z,0
2017-03-26T01:14:51.254Z,0
2017-03-26T01:15:52.515Z,0
2017-03-26T01:16:53.739Z,0
2017-03-26T01:17:55.054Z,0
2017-03-26T01:18:56.310Z,0
2017-03-26T01:19:57.522Z,0
2017-03-26T01:20:58.764Z,0
2017-03-26T01:22:00.008Z,0
2017-03-26T01:23:01.277Z,0
2017-03-26T01:24:02.494Z,0
2017-03-26T01:25:03.785Z,0
2017-03-26T01:26:05.014Z,0
2017-03-26T01:27:06.245Z,0
2017-03-26T01:28:07.490Z,0
2017-03-26T01:29:08.725Z,0
2017-03-26T01:30:10.034Z,0
2017-03-26T01:31:11.443Z,0
2017-03-26T01:32:12.676Z,0
2017-03-26T01:33:13.926Z,0
2017-03-26T01:34:15.182Z,0
2017-03-26T01:35:16.504Z,0
2017-03-26T01:36:17.842Z,0
2017-03-26T01:37:19.100Z,0
2017-03-26T01:38:20.342Z,0
2017-03-26T01:39:21.596Z,0
2017-03-26T01:40:22.806Z,0
2017-03-26T01:41:24.044Z,0
2017-03-26T01:42:25.351Z,0
2017-03-26T01:43:26.583Z,0
2017-03-26T01:44:27.845Z,0
2017-03-26T01:45:29.070Z,0
2017-03-26T01:46:30.291Z,0
2017-03-26T01:47:31.583Z,0
2017-03-26T01:48:32.838Z,0
2017-03-26T01:49:34.041Z,0
2017-03-26T01:50:35.328Z,0
2017-03-26T01:51:36.540Z,0
2017-03-26T01:52:37.834Z,0
2017-03-26T01:53:39.074Z,0
2017-03-26T01:54:40.395Z,0
2017-03-26T01:55:41.674Z,0
2017-03-26T01:56:42.915Z,0
2017-03-26T01:57:44.193Z,0
2017-03-26T01:58:45.393Z,0
2017-03-26T01:59:46.630Z,0
2017-03-26T02:00:47.862Z,0
2017-03-26T02:01:49.126Z,0
2017-03-26T02:02:50.359Z,0
2017-03-26T02:03:51.710Z,0
2017-03-26T02:04:52.945Z,0
2017-03-26T02:05:54.211Z,0
2017-03-26T02:06:55.605Z,0
2017-03-26T02:07:56.734Z,0
2017-03-26T02:08:57.972Z,0
2017-03-26T02:09:59.261Z,0
2017-03-26T02:11:00.544Z,0
2017-03-26T02:12:01.758Z,0
2017-03-26T02:13:02.999Z,0
2017-03-26T02:14:04.258Z,0
2017-03-26T02:15:05.493Z,0
2017-03-26T02:16:06.773Z,0
2017-03-26T02:17:08.007Z,0
2017-03-26T02:18:09.350Z,0
2017-03-26T02:19:10.556Z,0
2017-03-26T02:20:11.788Z,0
2017-03-26T02:21:13.043Z,0
2017-03-26T02:22:14.282Z,0
2017-03-26T02:23:15.533Z,0
2017-03-26T02:24:16.770Z,0
2017-03-26T02:25:18.010Z,0
2017-03-26T02:26:19.242Z,0
2017-03-26T02:27:20.490Z,0
2017-03-26T02:28:21.740Z,0
2017-03-26T02:29:23.018Z,0
2017-03-26T02:30:24.255Z,0
2017-03-26T02:31:25.478Z,0
2017-03-26T02:32:26.732Z,0
2017-03-26T02:33:27.950Z,0
2017-03-26T02:34:29.207Z,0
2017-03-26T02:35:30.418Z,0
2017-03-26T02:36:31.643Z,0
2017-03-26T02:37:32.879Z,0
2017-03-26T02:38:34.139Z,0
2017-03-26T02:39:35.352Z,0
2017-03-26T02:40:36.618Z,0
2017-03-26T02:41:37.866Z,0
2017-03-26T02:42:39.134Z,0
2017-03-26T02:43:40.359Z,0
2017-03-26T02:44:41.624Z,0
2017-03-26T02:45:42.863Z,0
2017-03-26T02:46:44.105Z,0
2017-03-26T02:47:45.350Z,0
2017-03-26T02:48:46.604Z,0
2017-03-26T02:49:47.870Z,0
2017-03-26T02:50:49.122Z,0
2017-03-26T02:51:50.374Z,0
2017-03-26T02:52:51.594Z,0
2017-03-26T02:53:52.836Z,0
2017-03-26T02:54:54.137Z,0
2017-03-26T02:55:55.367Z,0
2017-03-26T02:56:56.618Z,0
2017-03-26T02:57:57.905Z,0
2017-03-26T02:58:59.124Z,0
2017-03-26T03:00:00.371Z,0
2017-03-26T03:01:01.630Z,0
2017-03-26T03:02:02.972Z,0
2017-03-26T03:03:04.288Z,0
2017-03-26T03:04:05.535Z,0
2017-03-26T03:05:06.766Z,0
2017-03-26T03:06:07.995Z,0
2017-03-26T03:07:09.241Z,0
2017-03-26T03:08:10.477Z,0
2017-03-26T03:09:11.706Z,0
2017-03-26T03:10:12.946Z,0
2017-03-26T03:11:14.184Z,0
2017-03-26T03:12:15.423Z,0
2017-03-26T03:13:16.658Z,0
2017-03-26T03:14:18.062Z,0
2017-03-26T03:15:19.302Z,0
2017-03-26T03:16:20.537Z,0
2017-03-26T03:17:21.795Z,0
2017-03-26T03:18:23.036Z,0
2017-03-26T03:19:24.287Z,0
2017-03-26T03:20:25.534Z,0
2017-03-26T03:21:26.795Z,0
2017-03-26T03:22:28.097Z,0
2017-03-26T03:23:29.411Z,0
2017-03-26T03:24:30.602Z,0
2017-03-26T03:25:31.839Z,0
2017-03-26T03:26:33.087Z,0
2017-03-26T03:27:34.330Z,0
2017-03-26T03:28:35.572Z,0
2017-03-26T03:29:36.807Z,0
2017-03-26T03:30:38.040Z,0
2017-03-26T03:31:39.305Z,0
2017-03-26T03:32:40.521Z,0
2017-03-26T03:33:41.763Z,0
2017-03-26T03:34:42.996Z,0
2017-03-26T03:35:44.231Z,0
2017-03-26T03:36:45.464Z,0
2017-03-26T03:37:46.702Z,0
2017-03-26T03:38:47.944Z,0
2017-03-26T03:39:49.306Z,0
2017-03-26T03:40:50.458Z,0
2017-03-26T03:41:51.723Z,0
2017-03-26T03:42:52.976Z,0
2017-03-26T03:43:54.205Z,0
2017-03-26T03:44:55.448Z,0
2017-03-26T03:45:56.685Z,0
2017-03-26T03:46:57.952Z,0
2017-03-26T03:47:59.207Z,0
2017-03-26T03:49:00.441Z,0
2017-03-26T03:50:01.669Z,0
2017-03-26T03:51:02.931Z,0
2017-03-26T03:52:04.142Z,0
2017-03-26T03:53:05.392Z,0
2017-03-26T03:54:06.739Z,0
2017-03-26T03:55:07.982Z,0
2017-03-26T03:56:09.218Z,0
2017-03-26T03:57:10.475Z,0
2017-03-26T03:58:11.693Z,0
2017-03-26T03:59:12.945Z,0
2017-03-26T04:00:14.180Z,0
2017-03-26T04:01:15.503Z,0
2017-03-26T04:02:16.740Z,0
2017-03-26T04:03:17.987Z,0
2017-03-26T04:04:19.240Z,0
2017-03-26T04:05:20.567Z,0
2017-03-26T04:06:21.846Z,0
2017-03-26T04:07:23.083Z,0
2017-03-26T04:08:24.315Z,0
2017-03-26T04:09:25.565Z,0
2017-03-26T04:10:26.794Z,0
2017-03-26T04:11:28.025Z,0
2017-03-26T04:12:29.348Z,0
2017-03-26T04:13:30.581Z,0
2017-03-26T04:14:31.900Z,0
2017-03-26T04:15:33.141Z,0
2017-03-26T04:16:34.381Z,0
2017-03-26T04:17:35.645Z,0
2017-03-26T04:18:36.891Z,0
2017-03-26T04:19:38.281Z,0
2017-03-26T04:20:39.587Z,0
2017-03-26T04:21:40.852Z,0
2017-03-26T04:22:42.064Z,0
2017-03-26T04:23:43.297Z,0
2017-03-26T04:24:44.585Z,0
2017-03-26T04:25:46.060Z,0
2017-03-26T04:26:47.436Z,0
2017-03-26T04:27:48.655Z,0
2017-03-26T04:28:49.882Z,0
2017-03-26T04:29:51.124Z,0
2017-03-26T04:30:52.367Z,0
2017-03-26T04:31:53.596Z,0
2017-03-26T04:32:54.829Z,0
2017-03-26T04:33:56.068Z,0
2017-03-26T04:34:57.345Z,0
2017-03-26T04:35:58.566Z,0
2017-03-26T04:36:59.941Z,0
2017-03-26T04:38:01.182Z,0
2017-03-26T04:39:02.421Z,0
2017-03-26T04:40:03.720Z,0
2017-03-26T04:41:04.929Z,0
2017-03-26T04:42:06.180Z,0
2017-03-26T04:43:07.445Z,0
2017-03-26T04:44:08.676Z,0
2017-03-26T04:45:09.951Z,0
2017-03-26T04:46:11.255Z,0
2017-03-26T04:47:12.457Z,0
2017-03-26T04:48:13.685Z,0
2017-03-26T04:49:14.938Z,0
2017-03-26T04:50:16.240Z,4
2017-03-26T04:51:17.501Z,4
2017-03-26T04:52:18.721Z,0
2017-03-26T04:53:19.969Z,0
2017-03-26T04:54:21.198Z,4
2017-03-26T04:55:22.442Z,0
2017-03-26T04:56:23.677Z,0
2017-03-26T04:57:24.949Z,4
2017-03-26T04:58:26.344Z,4
2017-03-26T04:59:27.598Z,8
2017-03-26T05:00:28.824Z,8
2017-03-26T05:01:30.053Z,8
2017-03-26T05:02:31.347Z,16
2017-03-26T05:03:32.533Z,16
2017-03-26T05:04:33.852Z,20
2017-03-26T05:05:35.276Z,20
2017-03-26T05:06:36.473Z,24
2017-03-26T05:07:37.717Z,28
2017-03-26T05:08:38.938Z,32
2017-03-26T05:09:40.286Z,32
2017-03-26T05:10:41.564Z,36
2017-03-26T05:11:42.778Z,44
2017-03-26T05:12:44.024Z,48
2017-03-26T05:13:45.283Z,60
2017-03-26T05:14:46.573Z,64
2017-03-26T05:15:47.882Z,60
2017-03-26T05:16:49.121Z,64
2017-03-26T05:17:50.365Z,72
2017-03-26T05:18:51.602Z,84
2017-03-26T05:19:52.833Z,84
2017-03-26T05:20:54.085Z,104
2017-03-26T05:21:55.370Z,120
2017-03-26T05:22:56.591Z,128
2017-03-26T05:23:57.935Z,124
2017-03-26T05:24:59.168Z,148
2017-03-26T05:26:00.405Z,180
2017-03-26T05:27:01.745Z,192
2017-03-26T05:28:02.996Z,216
2017-03-26T05:29:04.273Z,208
2017-03-26T05:30:05.510Z,244
2017-03-26T05:31:06.753Z,240
2017-03-26T05:32:07.988Z,252
2017-03-26T05:33:09.223Z,276
2017-03-26T05:34:10.538Z,316
2017-03-26T05:35:11.872Z,376
2017-03-26T05:36:13.096Z,404
2017-03-26T05:37:14.334Z,460
2017-03-26T05:38:15.692Z,424
2017-03-26T05:39:16.929Z,452
2017-03-26T05:40:18.164Z,464
2017-03-26T05:41:19.398Z,504
2017-03-26T05:42:20.650Z,572
2017-03-26T05:43:21.871Z,592
2017-03-26T05:44:23.116Z,624
2017-03-26T05:45:24.349Z,640
2017-03-26T05:46:25.641Z,584
2017-03-26T05:47:26.881Z,576
2017-03-26T05:48:28.196Z,608
2017-03-26T05:49:29.452Z,592
2017-03-26T05:50:30.686Z,608
2017-03-26T05:51:31.913Z,644
2017-03-26T05:52:33.154Z,812
2017-03-26T05:53:34.411Z,868
2017-03-26T05:54:35.706Z,868
2017-03-26T05:55:36.940Z,972
2017-03-26T05:56:38.205Z,972
2017-03-26T05:57:39.448Z,948
2017-03-26T05:58:40.692Z,1036
2017-03-26T05:59:41.920Z,1340
2017-03-26T06:00:43.223Z,1272
2017-03-26T06:01:44.506Z,1152
2017-03-26T06:02:45.753Z,1092
2017-03-26T06:03:46.997Z,1420
2017-03-26T06:04:48.229Z,1388
2017-03-26T06:05:49.462Z,1488
2017-03-26T06:06:50.697Z,1504
2017-03-26T06:07:52.048Z,1316
2017-03-26T06:08:53.330Z,1516
2017-03-26T06:09:54.558Z,1572
2017-03-26T06:10:55.787Z,1720
2017-03-26T06:11:57.047Z,1580
2017-03-26T06:12:58.297Z,1456
2017-03-26T06:13:59.602Z,1656
2017-03-26T06:15:00.862Z,1696
2017-03-26T06:16:02.088Z,1832
2017-03-26T06:17:03.330Z,2244
2017-03-26T06:18:04.572Z,2412
2017-03-26T06:19:05.816Z,2600
2017-03-26T06:20:07.069Z,2496
2017-03-26T06:21:08.282Z,2736
2017-03-26T06:22:09.519Z,3076
2017-03-26T06:23:10.757Z,3544
2017-03-26T06:24:12.009Z,3464
2017-03-26T06:25:13.248Z,3312
2017-03-26T06:26:14.604Z,2852
2017-03-26T06:27:15.842Z,3132
2017-03-26T06:28:17.096Z,3368
2017-03-26T06:29:18.326Z,3632
2017-03-26T06:30:19.671Z,3780
2017-03-26T06:31:20.914Z,4620
2017-03-26T06:32:22.153Z,4556
2017-03-26T06:33:23.444Z,4076
2017-03-26T06:34:24.699Z,5368
2017-03-26T06:35:25.931Z,5376
2017-03-26T06:36:27.184Z,5336
2017-03-26T06:37:28.404Z,5184
2017-03-26T06:38:29.669Z,6040
2017-03-26T06:39:30.902Z,6676
2017-03-26T06:40:32.199Z,6812
2017-03-26T06:41:33.505Z,6212
2017-03-26T06:42:34.757Z,7288
2017-03-26T06:43:36.003Z,8340
2017-03-26T06:44:37.214Z,8372
2017-03-26T06:45:38.475Z,10476
2017-03-26T06:46:39.799Z,11220
2017-03-26T06:47:41.040Z,8860
2017-03-26T06:48:42.299Z,9960
2017-03-26T06:49:43.556Z,11104
2017-03-26T06:50:44.895Z,9044
2017-03-26T06:51:46.156Z,9848
2017-03-26T06:52:47.429Z,9828
2017-03-26T06:53:48.737Z,9704
2017-03-26T06:54:49.942Z,9336
2017-03-26T06:55:51.179Z,10720
2017-03-26T06:56:52.418Z,12652
2017-03-26T06:57:53.699Z,12624
2017-03-26T06:58:54.940Z,12680
2017-03-26T06:59:56.175Z,12112
2017-03-26T07:00:57.595Z,12996
2017-03-26T07:01:58.880Z,13444
2017-03-26T07:03:00.085Z,14476
2017-03-26T07:04:01.346Z,14688
2017-03-26T07:05:02.574Z,13512
2017-03-26T07:06:03.825Z,12084
2017-03-26T07:07:05.064Z,14624
2017-03-26T07:08:06.303Z,13952
2017-03-26T07:09:07.533Z,13080
2017-03-26T07:10:08.788Z,15968
2017-03-26T07:11:10.185Z,16288
2017-03-26T07:12:11.394Z,18432
2017-03-26T07:13:12.657Z,15584
2017-03-26T07:14:13.885Z,14804
2017-03-26T07:15:15.186Z,13112
2017-03-26T07:16:16.389Z,15680
2017-03-26T07:17:17.718Z,17408
2017-03-26T07:18:18.979Z,18016
2017-03-26T07:19:20.223Z,17920
2017-03-26T07:20:21.469Z,17600
2017-03-26T07:21:22.722Z,17824
2017-03-26T07:22:24.070Z,19328
2017-03-26T07:23:25.294Z,19424
2017-03-26T07:24:26.589Z,19616
2017-03-26T07:25:27.821Z,20000
2017-03-26T07:26:29.067Z,18688
2017-03-26T07:27:30.310Z,19136
2017-03-26T07:28:31.707Z,19072
2017-03-26T07:29:32.937Z,18048
2017-03-26T07:30:34.233Z,16192
2017-03-26T07:31:35.507Z,16576
2017-03-26T07:32:36.717Z,18272
2017-03-26T07:33:37.961Z,18464
2017-03-26T07:34:39.232Z,18624
2017-03-26T07:35:40.527Z,20192
2017-03-26T07:36:41.732Z,21152
2017-03-26T07:37:42.958Z,21312
2017-03-26T07:38:44.219Z,20896
2017-03-26T07:39:45.458Z,22368
2017-03-26T07:40:46.707Z,22048
2017-03-26T07:41:48.053Z,22432
2017-03-26T07:42:49.393Z,21280
2017-03-26T07:43:50.633Z,21632
2017-03-26T07:44:51.993Z,22496
2017-03-26T07:45:53.253Z,22304
2017-03-26T07:46:54.524Z,25376
2017-03-26T07:47:55.773Z,25408
2017-03-26T07:48:57.030Z,18848
2017-03-26T07:49:58.271Z,23488
2017-03-26T07:50:59.568Z,24544
2017-03-26T07:52:00.816Z,22336
2017-03-26T07:53:02.068Z,24128
2017-03-26T07:54:03.430Z,24032
2017-03-26T07:55:04.662Z,23424
2017-03-26T07:56:05.943Z,22496
2017-03-26T07:57:07.187Z,22144
2017-03-26T07:58:08.431Z,20896
2017-03-26T07:59:09.740Z,18432
2017-03-26T08:00:11.001Z,20544
2017-03-26T08:01:12.310Z,20704
2017-03-26T08:02:13.588Z,20864
2017-03-26T08:03:14.830Z,22016
2017-03-26T08:04:16.075Z,22112
2017-03-26T08:05:17.336Z,21376
2017-03-26T08:06:18.585Z,17792
2017-03-26T08:07:19.825Z,21568
2017-03-26T08:08:21.089Z,22368
2017-03-26T08:09:22.334Z,21536
2017-03-26T08:10:23.592Z,20896
2017-03-26T08:11:24.843Z,20512
2017-03-26T08:12:26.154Z,19840
2017-03-26T08:13:27.417Z,21088
2017-03-26T08:14:28.637Z,21088
2017-03-26T08:15:29.877Z,21344
2017-03-26T08:16:31.319Z,22240
2017-03-26T08:17:32.571Z,21600
2017-03-26T08:18:33.847Z,22848
2017-03-26T08:19:35.131Z,21920
2017-03-26T08:20:36.424Z,21504
2017-03-26T08:21:37.717Z,21184
2017-03-26T08:22:38.960Z,19456
2017-03-26T08:23:40.222Z,21120
2017-03-26T08:24:41.520Z,21664
2017-03-26T08:25:42.771Z,21568
2017-03-26T08:26:44.036Z,22496
2017-03-26T08:27:45.259Z,20768
2017-03-26T08:28:46.533Z,19968
2017-03-26T08:29:47.900Z,22144
2017-03-26T08:30:49.193Z,23008
2017-03-26T08:31:50.425Z,22848
2017-03-26T08:32:51.698Z,22304
2017-03-26T08:33:52.957Z,20992
2017-03-26T08:34:54.214Z,18272
2017-03-26T08:35:55.494Z,21408
2017-03-26T08:36:56.722Z,21344
2017-03-26T08:37:58.065Z,22464
2017-03-26T08:38:59.348Z,24384
2017-03-26T08:40:00.636Z,23872
2017-03-26T08:41:01.893Z,23104
2017-03-26T08:42:03.149Z,21632
2017-03-26T08:43:04.404Z,24640
2017-03-26T08:44:05.686Z,24672
2017-03-26T08:45:06.911Z,25856
2017-03-26T08:46:08.169Z,24096
2017-03-26T08:47:09.423Z,24480
2017-03-26T08:48:10.708Z,25088
2017-03-26T08:49:12.011Z,23584
2017-03-26T08:50:13.318Z,23008
2017-03-26T08:51:14.571Z,26784
2017-03-26T08:52:15.818Z,23776
2017-03-26T08:53:17.068Z,26400
2017-03-26T08:54:18.327Z,26528
2017-03-26T08:55:19.615Z,27584
2017-03-26T08:56:20.864Z,30080
2017-03-26T08:57:22.121Z,26208
2017-03-26T08:58:23.362Z,28736
2017-03-26T08:59:24.613Z,23456
2017-03-26T09:00:25.883Z,21856
2017-03-26T09:01:27.135Z,23424
2017-03-26T09:02:28.474Z,22112
2017-03-26T09:03:29.827Z,24416
2017-03-26T09:04:31.067Z,21792
2017-03-26T09:05:32.331Z,24576
2017-03-26T09:06:33.589Z,21664
2017-03-26T09:07:34.856Z,20672
2017-03-26T09:08:36.184Z,24768
2017-03-26T09:09:37.534Z,19584
2017-03-26T09:10:38.774Z,17824
2017-03-26T09:11:40.030Z,18400
2017-03-26T09:12:41.293Z,23904
2017-03-26T09:13:42.637Z,26048
2017-03-26T09:14:43.931Z,21120
2017-03-26T09:15:45.151Z,24480
2017-03-26T09:16:46.399Z,29024
2017-03-26T09:17:47.746Z,29664
2017-03-26T09:18:48.990Z,30560
2017-03-26T09:19:50.258Z,28544
2017-03-26T09:20:51.532Z,29152
2017-03-26T09:21:52.807Z,28032
2017-03-26T09:22:54.040Z,25728
2017-03-26T09:23:55.293Z,23392
2017-03-26T09:24:56.553Z,26112
2017-03-26T09:25:57.885Z,29312
2017-03-26T09:26:59.141Z,29216
2017-03-26T09:28:00.399Z,30208
2017-03-26T09:29:01.670Z,31360
2017-03-26T09:30:02.917Z,22784
2017-03-26T09:31:04.203Z,22624
2017-03-26T09:32:05.542Z,23584
2017-03-26T09:33:06.811Z,29216
2017-03-26T09:34:08.074Z,26400
2017-03-26T09:35:09.322Z,20608
2017-03-26T09:36:10.574Z,17248
2017-03-26T09:37:11.839Z,22240
2017-03-26T09:38:13.104Z,24992
2017-03-26T09:39:14.357Z,32000
2017-03-26T09:40:15.670Z,37408
2017-03-26T09:41:16.933Z,30816
2017-03-26T09:42:18.190Z,18080
2017-03-26T09:43:19.600Z,20512
2017-03-26T09:44:20.838Z,19392
2017-03-26T09:45:22.223Z,20672
2017-03-26T09:46:23.490Z,25152
2017-03-26T09:47:24.754Z,21568
2017-03-26T09:48:26.012Z,15336
2017-03-26T09:49:27.409Z,20512
2017-03-26T09:50:28.614Z,28128
2017-03-26T09:51:29.912Z,52736
2017-03-26T09:52:31.157Z,53152
2017-03-26T09:53:32.405Z,55136
2017-03-26T09:54:33.708Z,54400
2017-03-26T09:55:34.954Z,53504
2017-03-26T09:56:36.208Z,59232
2017-03-26T09:57:37.520Z,57728
2017-03-26T09:58:38.752Z,59872
2017-03-26T09:59:40.031Z,61056
2017-03-26T10:00:41.244Z,56032
2017-03-26T10:01:42.536Z,52160
2017-03-26T10:02:43.805Z,53664
2017-03-26T10:03:45.041Z,53056
2017-03-26T10:04:46.299Z,58784
2017-03-26T10:05:47.566Z,56160
2017-03-26T10:06:48.983Z,61920
2017-03-26T10:07:50.385Z,66208
2017-03-26T10:08:51.623Z,68416
2017-03-26T10:09:52.916Z,62400
2017-03-26T10:10:54.164Z,66208
2017-03-26T10:11:55.422Z,70784
2017-03-26T10:12:56.711Z,55936
2017-03-26T10:13:57.964Z,61216
2017-03-26T10:14:59.212Z,63776
2017-03-26T10:16:00.466Z,72512
2017-03-26T10:17:01.750Z,74368
2017-03-26T10:18:03.004Z,73472
2017-03-26T10:19:04.321Z,76800
2017-03-26T10:20:05.607Z,62720
2017-03-26T10:21:06.868Z,70048
2017-03-26T10:22:08.110Z,74880
2017-03-26T10:23:09.366Z,72832
2017-03-26T10:24:10.709Z,73152
2017-03-26T10:25:12.030Z,75168
2017-03-26T10:26:13.273Z,74240
2017-03-26T10:27:14.550Z,61344
2017-03-26T10:28:15.802Z,52544
2017-03-26T10:29:17.049Z,53024
2017-03-26T10:30:18.330Z,52960
2017-03-26T10:31:19.599Z,54336
2017-03-26T10:32:20.856Z,46880
2017-03-26T10:33:22.115Z,46752
2017-03-26T10:34:23.376Z,46016
2017-03-26T10:35:24.630Z,51776
2017-03-26T10:36:25.909Z,39488
2017-03-26T10:37:27.200Z,43200
2017-03-26T10:38:28.442Z,48032
2017-03-26T10:39:29.703Z,52032
2017-03-26T10:40:30.951Z,47200
2017-03-26T10:41:32.197Z,56192
2017-03-26T10:42:33.450Z,54752
2017-03-26T10:43:34.773Z,53664
2017-03-26T10:44:36.092Z,55296
2017-03-26T10:45:37.352Z,55168
2017-03-26T10:46:38.603Z,42752
2017-03-26T10:47:39.877Z,19904
2017-03-26T10:48:41.123Z,11960
2017-03-26T10:49:42.374Z,10580
2017-03-26T10:50:43.629Z,10140
2017-03-26T10:51:44.912Z,9688
2017-03-26T10:52:46.147Z,9032
2017-03-26T10:53:47.394Z,8440
2017-03-26T10:54:48.649Z,8112
2017-03-26T10:55:49.985Z,7908
2017-03-26T10:56:51.244Z,7616
2017-03-26T10:57:52.515Z,7416
2017-03-26T10:58:53.877Z,7232
2017-03-26T10:59:55.136Z,6964
2017-03-26T11:00:56.397Z,6712
2017-03-26T11:01:57.782Z,6624
2017-03-26T11:02:59.029Z,6540
2017-03-26T11:04:00.278Z,6428
2017-03-26T11:05:01.517Z,6356
2017-03-26T11:06:02.767Z,6288
2017-03-26T11:07:04.017Z,6224
2017-03-26T11:08:05.265Z,6104
2017-03-26T11:09:06.839Z,6044
2017-03-26T11:10:08.109Z,6044
2017-03-26T11:11:09.376Z,5984
2017-03-26T11:12:10.616Z,5696
2017-03-26T11:13:11.931Z,5608
2017-03-26T11:14:13.195Z,5564
2017-03-26T11:15:14.548Z,5636
2017-03-26T11:16:15.768Z,5620
2017-03-26T11:17:17.024Z,5572
2017-03-26T11:18:18.274Z,5600
2017-03-26T11:19:19.543Z,5612
2017-03-26T11:20:20.781Z,5540
2017-03-26T11:21:22.034Z,5452
2017-03-26T11:22:23.365Z,5396
2017-03-26T11:23:24.614Z,5364
2017-03-26T11:24:25.908Z,5336
2017-03-26T11:25:27.213Z,5284
2017-03-26T11:26:28.491Z,5312
2017-03-26T11:27:29.778Z,5328
2017-03-26T11:28:31.040Z,5352
2017-03-26T11:29:32.286Z,5336
2017-03-26T11:30:33.539Z,5212
2017-03-26T11:31:34.804Z,5092
2017-03-26T11:32:36.083Z,5032
2017-03-26T11:33:37.364Z,5048
2017-03-26T11:34:38.603Z,5096
2017-03-26T11:35:39.920Z,5100
2017-03-26T11:36:41.187Z,5128
2017-03-26T11:37:42.398Z,5104
2017-03-26T11:38:43.698Z,5116
2017-03-26T11:39:44.942Z,5076
2017-03-26T11:40:46.190Z,5016
2017-03-26T11:41:47.430Z,5048
2017-03-26T11:42:48.663Z,5000
2017-03-26T11:43:50.062Z,4948
2017-03-26T11:44:51.299Z,4948
2017-03-26T11:45:52.572Z,4896
2017-03-26T11:46:53.845Z,4808
2017-03-26T11:47:55.110Z,4728
2017-03-26T11:48:56.352Z,4752
2017-03-26T11:49:57.576Z,4780
2017-03-26T11:50:58.878Z,4788
2017-03-26T11:52:00.180Z,4764
2017-03-26T11:53:01.529Z,4700
2017-03-26T11:54:02.756Z,4624
2017-03-26T11:55:04.002Z,4632
2017-03-26T11:56:05.242Z,4620
2017-03-26T11:57:06.494Z,4564
2017-03-26T11:58:07.812Z,4548
2017-03-26T11:59:09.055Z,4564
2017-03-26T12:00:10.298Z,4564
2017-03-26T12:01:11.538Z,4560
2017-03-26T12:02:12.849Z,4604
2017-03-26T12:03:14.111Z,4668
2017-03-26T12:04:15.370Z,4664
2017-03-26T12:05:16.637Z,4592
2017-03-26T12:06:17.899Z,4504
2017-03-26T12:07:19.115Z,4440
2017-03-26T12:08:20.381Z,4424
2017-03-26T12:09:21.724Z,4404
2017-03-26T12:10:22.849Z,4404
2017-03-26T12:11:24.212Z,4420
2017-03-26T12:12:25.459Z,4392
2017-03-26T12:13:26.720Z,4344
2017-03-26T12:14:27.957Z,4264
2017-03-26T12:15:29.196Z,4272
2017-03-26T12:16:30.502Z,4272
2017-03-26T12:17:31.735Z,4316
2017-03-26T12:18:32.978Z,4380
2017-03-26T12:19:34.218Z,4380
2017-03-26T12:20:35.452Z,4416
2017-03-26T12:21:36.696Z,4468
2017-03-26T12:22:37.943Z,4496
2017-03-26T12:23:39.302Z,4524
2017-03-26T12:24:40.547Z,4512
2017-03-26T12:25:41.860Z,4540
2017-03-26T12:26:43.078Z,4496
2017-03-26T12:27:44.367Z,4364
2017-03-26T12:28:45.557Z,4392
2017-03-26T12:29:46.840Z,4360
2017-03-26T12:30:48.086Z,4216
2017-03-26T12:31:49.322Z,4416
2017-03-26T12:32:50.592Z,4424
2017-03-26T12:33:51.822Z,4460
2017-03-26T12:34:53.082Z,4460
2017-03-26T12:35:54.300Z,4456
2017-03-26T12:36:55.557Z,4436
2017-03-26T12:37:56.816Z,4388
2017-03-26T12:38:58.096Z,4316
2017-03-26T12:39:59.364Z,4316
2017-03-26T12:41:00.614Z,4324
2017-03-26T12:42:01.867Z,4312
2017-03-26T12:43:03.155Z,4272
2017-03-26T12:44:04.397Z,4196
2017-03-26T12:45:05.647Z,4180
2017-03-26T12:46:06.881Z,4188
2017-03-26T12:47:08.120Z,4228
2017-03-26T12:48:09.358Z,4252
2017-03-26T12:49:10.648Z,4256
2017-03-26T12:50:11.901Z,4244
2017-03-26T12:51:13.150Z,4204
2017-03-26T12:52:14.408Z,4148
2017-03-26T12:53:15.648Z,4072
2017-03-26T12:54:16.887Z,4056
2017-03-26T12:55:18.136Z,4076
2017-03-26T12:56:19.430Z,4104
2017-03-26T12:57:20.652Z,4124
2017-03-26T12:58:22.060Z,4144
2017-03-26T12:59:23.310Z,4128
2017-03-26T13:00:24.556Z,4088
2017-03-26T13:01:25.816Z,4040
2017-03-26T13:02:27.060Z,3992
2017-03-26T13:03:28.418Z,3996
2017-03-26T13:04:29.659Z,3992
2017-03-26T13:05:30.906Z,3940
2017-03-26T13:06:32.155Z,3944
2017-03-26T13:07:33.415Z,3948
2017-03-26T13:08:34.675Z,3904
2017-03-26T13:09:35.954Z,3880
2017-03-26T13:10:37.202Z,3856
2017-03-26T13:11:38.462Z,3824
2017-03-26T13:12:39.716Z,3784
2017-03-26T13:13:40.959Z,3764
2017-03-26T13:14:42.209Z,3752
2017-03-26T13:15:43.580Z,3748
2017-03-26T13:16:44.828Z,3724
2017-03-26T13:17:46.104Z,3704
2017-03-26T13:18:47.331Z,3704
2017-03-26T13:19:48.682Z,3692
2017-03-26T13:20:50.166Z,3684
2017-03-26T13:21:51.400Z,3656
2017-03-26T13:22:52.642Z,3640
2017-03-26T13:23:53.935Z,3636
2017-03-26T13:24:55.161Z,3624
2017-03-26T13:25:56.445Z,3620
2017-03-26T13:26:57.695Z,3616
2017-03-26T13:27:58.915Z,3624
2017-03-26T13:29:00.204Z,3616
2017-03-26T13:30:01.465Z,3592
2017-03-26T13:31:02.712Z,3596
2017-03-26T13:32:04.058Z,3624
2017-03-26T13:33:05.306Z,3656
2017-03-26T13:34:06.551Z,3684
2017-03-26T13:35:07.902Z,3688
2017-03-26T13:36:09.131Z,3676
2017-03-26T13:37:10.372Z,3656
2017-03-26T13:38:11.657Z,3660
2017-03-26T13:39:12.870Z,3656
2017-03-26T13:40:14.213Z,3656
2017-03-26T13:41:15.443Z,3660
2017-03-26T13:42:16.694Z,3684
2017-03-26T13:43:17.933Z,3696
2017-03-26T13:44:19.176Z,3724
2017-03-26T13:45:20.632Z,3756
2017-03-26T13:46:21.869Z,3780
2017-03-26T13:47:23.110Z,3812
2017-03-26T13:48:24.354Z,3852
2017-03-26T13:49:25.607Z,3892
2017-03-26T13:50:26.834Z,3924
2017-03-26T13:51:28.065Z,3960
2017-03-26T13:52:29.356Z,4008
2017-03-26T13:53:30.599Z,4072
2017-03-26T13:54:31.824Z,4152
2017-03-26T13:55:33.059Z,4224
2017-03-26T13:56:34.360Z,4296
2017-03-26T13:57:35.733Z,4356
2017-03-26T13:58:36.992Z,4444
2017-03-26T13:59:38.247Z,4516